createdAt,value
2023-01-19T00:28:32.830Z,98.6
2023-01-19T00:58:50.671Z,99.6
2023-01-19T01:29:08.782Z,99.7
2023-01-19T01:59:26.184Z,99.90001
2023-01-19T03:00:03.135Z,99.90001
2023-01-19T03:30:22.056Z,99.90001
2023-01-19T04:00:41.971Z,99.90001
2023-01-19T04:31:00.677Z,99.90001
2023-01-19T05:01:18.833Z,99.90001
2023-01-19T05:31:37.129Z,99.90001
2023-01-19T06:01:57.196Z,99.90001
2023-01-19T06:32:14.098Z,99.90001
2023-01-19T07:02:31.742Z,99.90001
2023-01-19T07:32:50.482Z,99.90001
2023-01-19T08:03:06.880Z,99.90001
2023-01-19T08:33:42.368Z,96.1
2023-01-19T09:04:01.505Z,94.90001
2023-01-19T09:34:23.833Z,88.5
2023-01-19T10:04:43.871Z,85.80001
2023-01-19T10:34:59.899Z,87.9
2023-01-19T11:05:18.200Z,89.2
2023-01-19T11:35:36.024Z,88.9
2023-01-19T12:05:53.910Z,87.80001
2023-01-19T12:36:12.578Z,88.5
2023-01-19T13:06:30.309Z,88.4
2023-01-19T13:36:49.073Z,89.3
2023-01-19T14:07:04.967Z,88.6
2023-01-19T14:37:24.029Z,87.6
2023-01-19T15:07:39.958Z,87.9
2023-01-19T15:37:56.583Z,89.1
2023-01-19T16:08:13.790Z,91.3
2023-01-19T16:38:30.802Z,89.3
2023-01-19T17:08:48.189Z,88.8
2023-01-19T17:39:04.630Z,90
2023-01-19T18:09:26.667Z,91.8
2023-01-19T18:39:43.816Z,94.00001
2023-01-19T19:10:05.790Z,93.9
2023-01-19T19:40:24.500Z,93.6
2023-01-19T20:10:43.012Z,93.6
2023-01-19T20:41:01.126Z,94.1
2023-01-19T21:11:17.683Z,93.1
2023-01-19T21:41:35.414Z,97.1
2023-01-19T22:11:51.347Z,98.5
2023-01-19T22:42:08.641Z,99.90001
2023-01-19T23:12:24.875Z,99.90001
2023-01-19T23:42:42.810Z,99.90001
